createdAt,value
2022-10-09T00:01:13.227Z,83.82
2022-10-09T00:04:16.174Z,83.54
2022-10-09T00:07:18.718Z,83.61
2022-10-09T00:10:21.928Z,83.45
2022-10-09T00:13:24.650Z,83.54
2022-10-09T00:16:27.663Z,83.54
2022-10-09T00:19:30.204Z,83.60
2022-10-09T00:22:33.714Z,83.63
2022-10-09T00:25:36.717Z,83.73
2022-10-09T00:28:39.520Z,83.81
2022-10-09T00:31:42.075Z,83.95
2022-10-09T00:34:44.990Z,84.09
2022-10-09T00:37:48.673Z,84.54
2022-10-09T00:40:52.105Z,84.21
2022-10-09T00:44:00.068Z,84.39
2022-10-09T00:47:03.411Z,84.34
2022-10-09T00:50:13.303Z,84.47
2022-10-09T00:53:18.521Z,84.84
2022-10-09T00:56:21.249Z,84.76
2022-10-09T00:59:24.672Z,84.84
2022-10-09T01:02:27.499Z,84.72
2022-10-09T01:05:49.148Z,84.64
2022-10-09T01:08:56.557Z,84.78
2022-10-09T01:12:06.890Z,84.49
2022-10-09T01:15:18.988Z,84.36
2022-10-09T01:18:34.113Z,84.26
2022-10-09T01:22:03.324Z,84.10
2022-10-09T01:25:08.295Z,84.12
2022-10-09T01:28:11.255Z,84.31
2022-10-09T01:31:14.914Z,84.29
2022-10-09T01:34:19.130Z,84.14
2022-10-09T01:37:22.420Z,83.99
2022-10-09T01:43:28.490Z,83.88
2022-10-09T01:46:32.784Z,83.91
2022-10-09T01:49:45.848Z,83.97
2022-10-09T01:52:53.999Z,83.94
2022-10-09T01:56:02.751Z,83.90
2022-10-09T01:59:15.676Z,83.95
2022-10-09T02:02:20.024Z,84.13
2022-10-09T02:05:27.111Z,84.19
2022-10-09T02:08:30.806Z,84.30
2022-10-09T02:11:35.694Z,84.21
2022-10-09T02:14:39.571Z,84.29
2022-10-09T02:17:49.633Z,84.43
2022-10-09T02:20:55.701Z,84.49
2022-10-09T02:23:58.938Z,84.67
2022-10-09T02:27:02.348Z,84.89
2022-10-09T02:30:07.834Z,84.82
2022-10-09T02:33:10.397Z,84.97
2022-10-09T02:36:14.358Z,85.29
2022-10-09T02:39:17.026Z,85.24
2022-10-09T02:42:19.830Z,85.43
2022-10-09T02:45:22.344Z,85.59
2022-10-09T02:48:25.370Z,85.67
2022-10-09T02:51:27.906Z,85.51
2022-10-09T02:54:30.925Z,85.44
2022-10-09T02:57:33.416Z,85.44
2022-10-09T03:00:38.209Z,85.74
2022-10-09T03:03:40.837Z,85.67
2022-10-09T03:06:43.619Z,85.73
2022-10-09T03:09:46.103Z,85.57
2022-10-09T03:12:49.226Z,85.27
2022-10-09T03:15:52.143Z,85.21
2022-10-09T03:18:55.177Z,85.11
2022-10-09T03:21:57.667Z,85.18
2022-10-09T03:25:00.500Z,85.20
2022-10-09T03:28:03.177Z,85.23
2022-10-09T03:31:06.806Z,85.44
2022-10-09T03:34:11.243Z,85.71
2022-10-09T03:37:14.193Z,87.08
2022-10-09T03:40:16.975Z,87.49
2022-10-09T03:43:19.797Z,88.68
2022-10-09T03:46:22.345Z,90.65
2022-10-09T03:49:25.129Z,89.84
2022-10-09T03:52:27.761Z,89.71
2022-10-09T03:55:30.689Z,90.74
2022-10-09T03:58:33.409Z,90.65
2022-10-09T04:01:36.610Z,91.54
2022-10-09T04:04:39.397Z,92.68
2022-10-09T04:07:41.881Z,92.94
2022-10-09T04:10:48.081Z,92.77
2022-10-09T04:13:50.583Z,92.12
2022-10-09T04:16:53.402Z,92.68
2022-10-09T04:19:55.852Z,94.05
2022-10-09T04:22:58.598Z,94.67
2022-10-09T04:26:01.215Z,95.70
2022-10-09T04:29:03.999Z,95.52
2022-10-09T04:32:07.072Z,95.16
2022-10-09T04:35:09.918Z,94.12
2022-10-09T04:38:12.785Z,94.90
2022-10-09T04:41:15.693Z,94.96
2022-10-09T04:44:18.304Z,95.27
2022-10-09T04:47:21.175Z,95.98
2022-10-09T04:50:24.189Z,94.58
2022-10-09T04:53:34.114Z,94.22
2022-10-09T04:56:36.672Z,93.47
2022-10-09T04:59:39.526Z,92.37
2022-10-09T05:02:42.008Z,91.83
2022-10-09T05:06:07.290Z,91.16
2022-10-09T05:09:11.114Z,92.24
2022-10-09T05:12:14.039Z,94.36
2022-10-09T05:15:16.548Z,94.24
2022-10-09T05:18:19.400Z,94.77
2022-10-09T05:21:22.571Z,94.52
2022-10-09T05:24:25.405Z,95.47
2022-10-09T05:27:27.928Z,96.13
2022-10-09T05:30:30.755Z,95.57
2022-10-09T05:33:33.807Z,94.88
2022-10-09T05:36:36.701Z,94.58
2022-10-09T05:39:39.573Z,94.60
2022-10-09T05:42:44.617Z,95.04
2022-10-09T05:45:47.255Z,95.96
2022-10-09T05:48:58.775Z,95.96
2022-10-09T05:52:04.407Z,95.35
2022-10-09T05:55:07.571Z,95.10
2022-10-09T05:58:10.224Z,94.35
2022-10-09T06:01:13.103Z,94.94
2022-10-09T06:04:21.824Z,95.34
2022-10-09T06:07:24.312Z,94.67
2022-10-09T06:10:32.078Z,94.27
2022-10-09T06:13:35.210Z,94.65
2022-10-09T06:16:40.535Z,94.70
2022-10-09T06:19:43.291Z,94.50
2022-10-09T06:22:46.315Z,94.25
2022-10-09T06:25:57.350Z,94.21
2022-10-09T06:29:01.664Z,94.47
2022-10-09T06:32:07.191Z,94.07
2022-10-09T06:35:09.942Z,94.89
2022-10-09T06:38:12.533Z,93.82
2022-10-09T06:41:20.593Z,94.27
2022-10-09T06:44:23.462Z,94.46
2022-10-09T06:47:26.251Z,93.43
2022-10-09T06:50:28.987Z,93.47
2022-10-09T06:53:35.573Z,93.91
2022-10-09T06:56:39.892Z,92.75
2022-10-09T06:59:43.013Z,91.58
2022-10-09T07:02:45.739Z,91.42
2022-10-09T07:05:48.848Z,89.69
2022-10-09T07:08:59.350Z,88.24
2022-10-09T07:12:02.188Z,87.44
2022-10-09T07:15:06.255Z,87.48
2022-10-09T07:18:09.066Z,87.00
2022-10-09T07:21:11.733Z,85.38
2022-10-09T07:24:14.675Z,85.62
2022-10-09T07:27:17.941Z,83.73
2022-10-09T07:30:21.921Z,82.26
2022-10-09T07:33:24.434Z,82.49
2022-10-09T07:36:27.399Z,82.07
2022-10-09T07:39:29.902Z,80.94
2022-10-09T07:42:32.738Z,80.57
2022-10-09T07:45:35.501Z,79.00
2022-10-09T07:48:38.673Z,77.88
2022-10-09T07:51:41.173Z,76.96
2022-10-09T07:54:44.033Z,74.00
2022-10-09T07:57:46.556Z,71.85
2022-10-09T08:00:49.559Z,73.68
2022-10-09T08:03:52.314Z,72.52
2022-10-09T08:06:58.322Z,72.76
2022-10-09T08:10:01.230Z,70.71
2022-10-09T08:13:03.902Z,71.20
2022-10-09T08:16:07.487Z,70.91
2022-10-09T08:19:10.073Z,69.93
2022-10-09T08:22:12.846Z,68.84
2022-10-09T08:25:15.425Z,69.82
2022-10-09T08:28:18.707Z,69.08
2022-10-09T08:31:21.619Z,67.23
2022-10-09T08:34:24.483Z,68.38
2022-10-09T08:37:26.932Z,69.00
2022-10-09T08:40:58.144Z,67.83
2022-10-09T08:44:02.705Z,67.17
2022-10-09T08:47:12.342Z,66.76
2022-10-09T08:50:26.095Z,66.67
2022-10-09T08:53:38.460Z,65.82
2022-10-09T08:56:42.990Z,65.65
2022-10-09T08:59:51.381Z,65.68
2022-10-09T09:03:52.168Z,64.88
2022-10-09T09:07:05.866Z,65.63
2022-10-09T09:10:37.565Z,65.61
2022-10-09T09:14:17.309Z,63.73
2022-10-09T09:17:22.398Z,63.88
2022-10-09T09:20:27.040Z,64.42
2022-10-09T09:23:32.967Z,63.58
2022-10-09T09:26:35.843Z,64.65
2022-10-09T09:29:45.526Z,63.76
2022-10-09T09:33:07.518Z,64.01
2022-10-09T09:36:27.307Z,62.64
2022-10-09T09:42:57.105Z,62.95
2022-10-09T09:46:01.221Z,62.95
2022-10-09T09:49:08.574Z,63.31
2022-10-09T09:52:14.150Z,62.31
2022-10-09T09:55:29.276Z,61.49
2022-10-09T09:58:38.871Z,61.01
2022-10-09T10:01:41.466Z,61.89
2022-10-09T10:04:57.810Z,60.63
2022-10-09T10:08:00.314Z,61.03
2022-10-09T10:11:06.433Z,61.26
2022-10-09T10:14:09.707Z,59.79
2022-10-09T10:17:25.564Z,60.27
2022-10-09T10:20:29.416Z,60.10
2022-10-09T10:23:41.554Z,59.52
2022-10-09T10:26:50.789Z,60.03
2022-10-09T10:29:57.597Z,60.28
2022-10-09T10:33:25.113Z,59.17
2022-10-09T10:36:28.801Z,60.42
2022-10-09T10:39:39.959Z,60.94
2022-10-09T10:42:49.307Z,59.22
2022-10-09T10:46:10.135Z,59.47
2022-10-09T10:49:16.216Z,59.27
2022-10-09T10:52:40.546Z,59.87
2022-10-09T10:56:19.495Z,59.88
2022-10-09T10:59:46.971Z,60.28
2022-10-09T11:03:08.237Z,60.29
2022-10-09T11:06:26.379Z,59.49
2022-10-09T11:09:35.121Z,58.67
2022-10-09T11:12:48.699Z,58.95
2022-10-09T11:15:57.562Z,60.55
2022-10-09T11:19:09.963Z,59.78
2022-10-09T11:22:12.773Z,56.61
2022-10-09T11:25:39.389Z,57.96
2022-10-09T11:29:21.404Z,56.39
2022-10-09T11:32:30.901Z,57.94
2022-10-09T11:35:47.042Z,57.88
2022-10-09T11:38:53.672Z,57.16
2022-10-09T11:41:57.127Z,56.58
2022-10-09T11:48:45.741Z,57.01
2022-10-09T11:52:07.646Z,56.95
2022-10-09T11:55:23.823Z,57.00
2022-10-09T11:58:26.416Z,57.51
2022-10-09T12:01:38.494Z,57.14
2022-10-09T12:04:54.410Z,56.05
2022-10-09T12:08:18.261Z,56.85
2022-10-09T12:11:23.691Z,57.82
2022-10-09T12:14:27.242Z,58.07
2022-10-09T12:17:36.453Z,57.37
2022-10-09T12:20:40.575Z,57.86
2022-10-09T12:23:47.231Z,57.50
2022-10-09T12:26:51.311Z,57.58
2022-10-09T12:29:56.917Z,57.66
2022-10-09T12:33:05.146Z,56.93
2022-10-09T12:36:29.043Z,57.70
2022-10-09T12:39:33.799Z,57.28
2022-10-09T12:42:36.787Z,57.60
2022-10-09T12:45:43.599Z,57.26
2022-10-09T12:48:46.539Z,57.60
2022-10-09T12:51:56.107Z,57.81
2022-10-09T12:55:02.788Z,57.71
2022-10-09T12:58:09.263Z,57.49
2022-10-09T13:01:15.005Z,56.46
2022-10-09T13:04:27.471Z,56.67
2022-10-09T13:07:32.472Z,55.09
2022-10-09T13:10:36.525Z,55.70
2022-10-09T13:13:39.815Z,55.10
2022-10-09T13:17:04.164Z,54.79
2022-10-09T13:20:16.599Z,55.22
2022-10-09T13:23:29.120Z,54.88
2022-10-09T13:26:33.698Z,55.56
2022-10-09T13:29:36.282Z,54.06
2022-10-09T13:32:39.476Z,54.57
2022-10-09T13:35:42.693Z,54.58
2022-10-09T13:38:45.797Z,53.55
2022-10-09T13:41:49.366Z,52.93
2022-10-09T13:44:52.371Z,53.66
2022-10-09T13:47:54.988Z,54.41
2022-10-09T13:51:00.783Z,54.22
2022-10-09T13:54:03.471Z,54.11
2022-10-09T13:57:06.343Z,53.88
2022-10-09T14:00:09.529Z,53.90
2022-10-09T14:03:14.822Z,54.10
2022-10-09T14:06:18.112Z,55.06
2022-10-09T14:09:21.184Z,54.22
2022-10-09T14:12:24.425Z,54.32
2022-10-09T14:15:27.023Z,53.06
2022-10-09T14:18:29.948Z,53.59
2022-10-09T14:21:33.221Z,54.11
2022-10-09T14:24:37.052Z,53.43
2022-10-09T14:27:42.671Z,53.93
2022-10-09T14:30:47.405Z,54.50
2022-10-09T14:33:50.205Z,54.59
2022-10-09T14:36:53.557Z,54.98
2022-10-09T14:39:57.288Z,54.34
2022-10-09T14:43:03.672Z,54.66
2022-10-09T14:46:13.040Z,55.45
2022-10-09T14:49:16.130Z,55.33
2022-10-09T14:52:19.165Z,55.52
2022-10-09T14:55:23.645Z,56.05
2022-10-09T14:58:28.447Z,57.23
2022-10-09T15:01:32.295Z,56.78
2022-10-09T15:04:34.968Z,57.24
2022-10-09T15:07:37.770Z,57.15
2022-10-09T15:10:41.228Z,57.38
2022-10-09T15:13:44.099Z,57.63
2022-10-09T15:16:47.044Z,58.54
2022-10-09T15:19:49.874Z,59.16
2022-10-09T15:22:52.424Z,59.24
2022-10-09T15:25:57.516Z,59.62
2022-10-09T15:29:01.893Z,60.00
2022-10-09T15:32:04.808Z,60.77
2022-10-09T15:35:07.959Z,60.38
2022-10-09T15:38:19.153Z,60.89
2022-10-09T15:41:22.047Z,60.72
2022-10-09T15:44:24.875Z,61.42
2022-10-09T15:47:50.116Z,61.22
2022-10-09T15:50:52.206Z,60.81
2022-10-09T15:53:56.156Z,61.04
2022-10-09T15:56:59.037Z,60.94
2022-10-09T16:00:01.696Z,61.25
2022-10-09T16:03:07.667Z,61.07
2022-10-09T16:06:13.040Z,61.09
2022-10-09T16:09:16.048Z,61.49
2022-10-09T16:12:19.382Z,61.50
2022-10-09T16:15:22.320Z,61.69
2022-10-09T16:18:25.511Z,61.88
2022-10-09T16:21:28.981Z,62.59
2022-10-09T16:24:32.408Z,62.64
2022-10-09T16:27:35.599Z,62.82
2022-10-09T16:30:43.757Z,63.10
2022-10-09T16:33:47.802Z,63.10
2022-10-09T16:36:52.532Z,63.43
2022-10-09T16:40:11.864Z,63.52
2022-10-09T16:43:15.727Z,63.51
2022-10-09T16:46:24.539Z,63.73
2022-10-09T16:49:27.876Z,63.90
2022-10-09T16:52:34.378Z,63.87
2022-10-09T16:55:38.235Z,64.13
2022-10-09T16:58:42.569Z,64.33
2022-10-09T17:01:47.741Z,64.25
2022-10-09T17:04:50.907Z,64.61
2022-10-09T17:07:54.544Z,64.47
2022-10-09T17:10:57.210Z,64.23
2022-10-09T17:14:00.321Z,64.26
2022-10-09T17:17:04.525Z,64.59
2022-10-09T17:20:09.287Z,64.74
2022-10-09T17:23:11.982Z,64.90
2022-10-09T17:26:17.999Z,64.94
2022-10-09T17:29:21.465Z,64.45
2022-10-09T17:32:25.305Z,64.39
2022-10-09T17:35:28.570Z,64.93
2022-10-09T17:38:31.574Z,64.38
2022-10-09T17:41:34.277Z,64.44
2022-10-09T17:44:37.141Z,64.98
2022-10-09T17:47:39.667Z,65.70
2022-10-09T17:50:57.914Z,65.90
2022-10-09T17:54:05.875Z,65.39
2022-10-09T17:57:14.830Z,65.38
2022-10-09T18:00:21.683Z,65.85
2022-10-09T18:03:27.534Z,66.29
2022-10-09T18:06:34.515Z,66.48
2022-10-09T18:09:45.207Z,66.41
2022-10-09T18:12:51.032Z,66.67
2022-10-09T18:15:54.279Z,67.25
2022-10-09T18:19:00.867Z,66.64
2022-10-09T18:22:03.994Z,66.63
2022-10-09T18:25:12.660Z,67.32
2022-10-09T18:28:19.751Z,67.39
2022-10-09T18:31:28.146Z,66.85
2022-10-09T18:34:33.715Z,66.66
2022-10-09T18:37:42.042Z,66.56
2022-10-09T18:41:25.837Z,66.59
2022-10-09T18:44:33.020Z,66.12
2022-10-09T18:47:37.907Z,66.24
2022-10-09T18:50:45.051Z,66.16
2022-10-09T18:53:53.402Z,65.89
2022-10-09T18:56:57.131Z,66.04
2022-10-09T19:00:02.222Z,66.13
2022-10-09T19:03:05.344Z,66.15
2022-10-09T19:06:09.539Z,66.09
2022-10-09T19:09:14.862Z,66.40
2022-10-09T19:12:19.070Z,65.64
2022-10-09T19:15:22.286Z,65.12
2022-10-09T19:18:26.593Z,64.89
2022-10-09T19:21:29.339Z,64.71
2022-10-09T19:24:34.297Z,64.79
2022-10-09T19:27:37.423Z,64.68
2022-10-09T19:30:43.522Z,64.92
2022-10-09T19:33:46.144Z,64.42
2022-10-09T19:36:50.223Z,64.64
2022-10-09T19:39:52.716Z,64.44
2022-10-09T19:42:55.647Z,64.76
2022-10-09T19:46:07.037Z,64.90
2022-10-09T19:49:10.023Z,64.98
2022-10-09T19:52:12.636Z,65.23
2022-10-09T19:55:16.367Z,65.28
2022-10-09T19:58:19.162Z,65.53
2022-10-09T20:01:24.270Z,66.39
2022-10-09T20:04:27.231Z,65.96
2022-10-09T20:07:29.865Z,65.64
2022-10-09T20:10:37.236Z,65.46
2022-10-09T20:13:44.759Z,65.12
2022-10-09T20:16:47.618Z,64.75
2022-10-09T20:19:50.732Z,64.62
2022-10-09T20:22:54.406Z,64.87
2022-10-09T20:26:11.825Z,64.84
2022-10-09T20:29:14.654Z,64.45
2022-10-09T20:32:18.075Z,64.34
2022-10-09T20:35:23.957Z,64.43
2022-10-09T20:38:26.545Z,64.78
2022-10-09T20:41:30.587Z,64.64
2022-10-09T20:44:33.142Z,64.71
2022-10-09T20:47:37.369Z,64.66
2022-10-09T20:50:41.733Z,64.58
2022-10-09T20:53:45.345Z,64.88
2022-10-09T20:56:48.274Z,65.21
2022-10-09T20:59:51.022Z,64.89
2022-10-09T21:02:53.586Z,64.60
2022-10-09T21:05:56.337Z,64.58
2022-10-09T21:08:58.918Z,63.78
2022-10-09T21:12:02.398Z,63.52
2022-10-09T21:15:06.034Z,63.40
2022-10-09T21:18:09.031Z,63.34
2022-10-09T21:21:15.394Z,63.29
2022-10-09T21:24:18.343Z,63.04
2022-10-09T21:27:20.928Z,62.72
2022-10-09T21:30:23.846Z,62.46
2022-10-09T21:33:26.319Z,62.45
2022-10-09T21:36:29.089Z,62.60
2022-10-09T21:39:31.690Z,62.22
2022-10-09T21:42:34.505Z,61.90
2022-10-09T21:45:38.116Z,61.92
2022-10-09T21:48:41.066Z,61.74
2022-10-09T21:51:43.509Z,61.88
2022-10-09T21:54:46.369Z,61.78
2022-10-09T21:57:49.232Z,61.73
2022-10-09T22:01:00.127Z,61.03
2022-10-09T22:04:03.358Z,61.54
2022-10-09T22:07:05.897Z,61.60
2022-10-09T22:10:09.149Z,61.49
2022-10-09T22:13:12.001Z,61.79
2022-10-09T22:16:15.695Z,61.53
2022-10-09T22:19:18.995Z,61.39
2022-10-09T22:22:23.743Z,61.20
2022-10-09T22:25:26.265Z,60.81
2022-10-09T22:28:29.440Z,61.09
2022-10-09T22:31:31.961Z,60.83
2022-10-09T22:34:34.789Z,60.58
2022-10-09T22:37:37.209Z,60.21
2022-10-09T22:40:41.853Z,60.48
2022-10-09T22:43:51.620Z,60.46
2022-10-09T22:46:54.495Z,60.58
2022-10-09T22:49:57.453Z,60.58
2022-10-09T22:53:00.201Z,60.28
2022-10-09T22:56:07.199Z,60.22
2022-10-09T22:59:11.780Z,60.13
2022-10-09T23:02:14.932Z,59.75
2022-10-09T23:05:17.764Z,60.17
2022-10-09T23:08:20.255Z,59.86
2022-10-09T23:11:23.377Z,59.66
2022-10-09T23:14:26.313Z,59.63
2022-10-09T23:17:29.104Z,59.11
2022-10-09T23:20:36.273Z,59.01
2022-10-09T23:23:39.748Z,59.25
2022-10-09T23:26:42.269Z,58.56
2022-10-09T23:29:45.815Z,58.81
2022-10-09T23:32:48.548Z,58.06
2022-10-09T23:35:51.626Z,58.14
2022-10-09T23:38:54.697Z,58.46
2022-10-09T23:41:57.469Z,58.53
2022-10-09T23:45:00.001Z,58.33
2022-10-09T23:48:02.780Z,58.52
2022-10-09T23:51:06.582Z,58.67
2022-10-09T23:54:09.893Z,58.91
2022-10-09T23:57:12.415Z,58.73
